sensor_id;sensor_type;location;lat;lon;timestamp;P1;durP1;ratioP1;P2;durP2;ratioP2
77076;SDS011;66003;52.286;104.306;2023-06-22T00:00:58;6.97;;;2.85;;
77076;SDS011;66003;52.286;104.306;2023-06-22T00:03:26;6.65;;;2.95;;
77076;SDS011;66003;52.286;104.306;2023-06-22T00:05:52;6.28;;;2.33;;
77076;SDS011;66003;52.286;104.306;2023-06-22T00:08:19;4.03;;;2.47;;
77076;SDS011;66003;52.286;104.306;2023-06-22T00:10:46;6.97;;;2.80;;
77076;SDS011;66003;52.286;104.306;2023-06-22T00:13:13;7.47;;;2.55;;
77076;SDS011;66003;52.286;104.306;2023-06-22T00:15:40;7.90;;;2.47;;
77076;SDS011;66003;52.286;104.306;2023-06-22T00:18:08;9.55;;;3.35;;
77076;SDS011;66003;52.286;104.306;2023-06-22T00:20:35;7.90;;;3.70;;
77076;SDS011;66003;52.286;104.306;2023-06-22T00:23:03;7.20;;;2.58;;
77076;SDS011;66003;52.286;104.306;2023-06-22T00:25:34;6.47;;;3.70;;
77076;SDS011;66003;52.286;104.306;2023-06-22T00:28:07;6.75;;;3.30;;
77076;SDS011;66003;52.286;104.306;2023-06-22T00:30:33;6.05;;;2.17;;
77076;SDS011;66003;52.286;104.306;2023-06-22T00:33:00;6.22;;;2.55;;
77076;SDS011;66003;52.286;104.306;2023-06-22T00:35:27;11.65;;;3.05;;
77076;SDS011;66003;52.286;104.306;2023-06-22T00:37:57;5.88;;;2.60;;
77076;SDS011;66003;52.286;104.306;2023-06-22T00:40:29;7.68;;;2.65;;
77076;SDS011;66003;52.286;104.306;2023-06-22T00:42:57;9.40;;;4.57;;
77076;SDS011;66003;52.286;104.306;2023-06-22T00:45:24;8.52;;;4.50;;
77076;SDS011;66003;52.286;104.306;2023-06-22T00:47:51;3.97;;;3.05;;
77076;SDS011;66003;52.286;104.306;2023-06-22T00:50:20;8.52;;;4.72;;
77076;SDS011;66003;52.286;104.306;2023-06-22T00:52:49;7.45;;;5.22;;
77076;SDS011;66003;52.286;104.306;2023-06-22T00:55:19;12.48;;;5.45;;
77076;SDS011;66003;52.286;104.306;2023-06-22T00:57:47;9.63;;;5.07;;
77076;SDS011;66003;52.286;104.306;2023-06-22T01:00:15;9.40;;;6.07;;
77076;SDS011;66003;52.286;104.306;2023-06-22T01:02:46;11.60;;;5.57;;
77076;SDS011;66003;52.286;104.306;2023-06-22T01:05:15;8.00;;;5.97;;
77076;SDS011;66003;52.286;104.306;2023-06-22T01:07:44;6.85;;;5.05;;
77076;SDS011;66003;52.286;104.306;2023-06-22T01:11:20;11.07;;;5.47;;
77076;SDS011;66003;52.286;104.306;2023-06-22T01:14:42;7.28;;;5.47;;
77076;SDS011;66003;52.286;104.306;2023-06-22T01:17:12;7.03;;;4.93;;
77076;SDS011;66003;52.286;104.306;2023-06-22T01:22:22;15.48;;;6.20;;
77076;SDS011;66003;52.286;104.306;2023-06-22T01:27:39;9.70;;;5.43;;
77076;SDS011;66003;52.286;104.306;2023-06-22T01:30:11;9.40;;;5.97;;
77076;SDS011;66003;52.286;104.306;2023-06-22T01:32:40;7.18;;;5.20;;
77076;SDS011;66003;52.286;104.306;2023-06-22T01:35:07;7.85;;;5.22;;
77076;SDS011;66003;52.286;104.306;2023-06-22T01:37:36;7.68;;;5.18;;
77076;SDS011;66003;52.286;104.306;2023-06-22T01:40:03;11.88;;;5.32;;
77076;SDS011;66003;52.286;104.306;2023-06-22T01:42:32;10.90;;;4.57;;
77076;SDS011;66003;52.286;104.306;2023-06-22T01:44:59;9.02;;;4.93;;
77076;SDS011;66003;52.286;104.306;2023-06-22T01:47:32;7.85;;;4.78;;
77076;SDS011;66003;52.286;104.306;2023-06-22T01:49:59;12.25;;;4.20;;
77076;SDS011;66003;52.286;104.306;2023-06-22T01:52:26;9.73;;;3.63;;
77076;SDS011;66003;52.286;104.306;2023-06-22T01:54:52;7.65;;;3.72;;
77076;SDS011;66003;52.286;104.306;2023-06-22T01:57:19;11.27;;;4.03;;
77076;SDS011;66003;52.286;104.306;2023-06-22T01:59:53;7.95;;;4.47;;
77076;SDS011;66003;52.286;104.306;2023-06-22T02:02:31;7.22;;;3.78;;
77076;SDS011;66003;52.286;104.306;2023-06-22T02:05:09;10.93;;;4.13;;
77076;SDS011;66003;52.286;104.306;2023-06-22T02:07:49;8.48;;;3.95;;
77076;SDS011;66003;52.286;104.306;2023-06-22T02:10:23;10.50;;;3.70;;
77076;SDS011;66003;52.286;104.306;2023-06-22T02:12:51;6.70;;;3.70;;
77076;SDS011;66003;52.286;104.306;2023-06-22T02:15:20;8.80;;;4.22;;
77076;SDS011;66003;52.286;104.306;2023-06-22T02:17:47;6.95;;;4.18;;
77076;SDS011;66003;52.286;104.306;2023-06-22T02:20:14;10.98;;;4.43;;
77076;SDS011;66003;52.286;104.306;2023-06-22T02:22:41;13.40;;;4.80;;
77076;SDS011;66003;52.286;104.306;2023-06-22T02:25:07;9.63;;;3.80;;
77076;SDS011;66003;52.286;104.306;2023-06-22T02:27:33;12.95;;;4.25;;
77076;SDS011;66003;52.286;104.306;2023-06-22T02:30:00;6.90;;;4.00;;
77076;SDS011;66003;52.286;104.306;2023-06-22T02:32:26;10.77;;;4.78;;
77076;SDS011;66003;52.286;104.306;2023-06-22T02:34:52;10.32;;;4.00;;
77076;SDS011;66003;52.286;104.306;2023-06-22T02:37:19;9.50;;;4.40;;
77076;SDS011;66003;52.286;104.306;2023-06-22T02:39:45;7.97;;;4.03;;
77076;SDS011;66003;52.286;104.306;2023-06-22T02:42:11;12.80;;;4.00;;
77076;SDS011;66003;52.286;104.306;2023-06-22T02:44:37;8.65;;;4.53;;
77076;SDS011;66003;52.286;104.306;2023-06-22T02:47:03;12.88;;;4.32;;
77076;SDS011;66003;52.286;104.306;2023-06-22T02:49:30;10.57;;;3.55;;
77076;SDS011;66003;52.286;104.306;2023-06-22T02:52:00;11.45;;;3.78;;
77076;SDS011;66003;52.286;104.306;2023-06-22T02:54:30;12.70;;;4.22;;
77076;SDS011;66003;52.286;104.306;2023-06-22T02:57:12;10.65;;;3.92;;
77076;SDS011;66003;52.286;104.306;2023-06-22T02:59:39;11.90;;;3.72;;
77076;SDS011;66003;52.286;104.306;2023-06-22T03:02:08;9.27;;;2.95;;
77076;SDS011;66003;52.286;104.306;2023-06-22T03:04:35;6.53;;;3.40;;
77076;SDS011;66003;52.286;104.306;2023-06-22T03:07:01;7.00;;;3.17;;
77076;SDS011;66003;52.286;104.306;2023-06-22T03:09:30;8.98;;;3.25;;
77076;SDS011;66003;52.286;104.306;2023-06-22T03:11:57;11.80;;;3.30;;
77076;SDS011;66003;52.286;104.306;2023-06-22T03:14:23;8.60;;;2.97;;
77076;SDS011;66003;52.286;104.306;2023-06-22T03:16:49;8.48;;;3.47;;
77076;SDS011;66003;52.286;104.306;2023-06-22T03:19:15;11.40;;;3.95;;
77076;SDS011;66003;52.286;104.306;2023-06-22T03:21:42;10.85;;;3.22;;
77076;SDS011;66003;52.286;104.306;2023-06-22T03:24:08;11.77;;;2.63;;
77076;SDS011;66003;52.286;104.306;2023-06-22T03:26:34;7.25;;;3.22;;
77076;SDS011;66003;52.286;104.306;2023-06-22T03:29:00;7.00;;;3.83;;
77076;SDS011;66003;52.286;104.306;2023-06-22T03:31:26;6.05;;;3.75;;
77076;SDS011;66003;52.286;104.306;2023-06-22T03:33:53;6.28;;;3.33;;
77076;SDS011;66003;52.286;104.306;2023-06-22T03:36:19;6.20;;;4.13;;
77076;SDS011;66003;52.286;104.306;2023-06-22T03:38:46;6.75;;;4.05;;
77076;SDS011;66003;52.286;104.306;2023-06-22T03:41:13;11.65;;;3.90;;
77076;SDS011;66003;52.286;104.306;2023-06-22T03:43:39;7.57;;;3.50;;
77076;SDS011;66003;52.286;104.306;2023-06-22T03:46:05;5.97;;;3.15;;
77076;SDS011;66003;52.286;104.306;2023-06-22T03:48:32;9.70;;;3.35;;
77076;SDS011;66003;52.286;104.306;2023-06-22T03:50:59;5.47;;;3.45;;
77076;SDS011;66003;52.286;104.306;2023-06-22T03:53:27;8.10;;;3.47;;
77076;SDS011;66003;52.286;104.306;2023-06-22T03:55:53;7.82;;;3.70;;
77076;SDS011;66003;52.286;104.306;2023-06-22T03:58:20;9.13;;;3.25;;
77076;SDS011;66003;52.286;104.306;2023-06-22T04:00:48;9.20;;;4.28;;
77076;SDS011;66003;52.286;104.306;2023-06-22T04:03:18;6.75;;;3.50;;
77076;SDS011;66003;52.286;104.306;2023-06-22T04:05:45;6.30;;;3.05;;
77076;SDS011;66003;52.286;104.306;2023-06-22T04:08:12;10.23;;;4.20;;
77076;SDS011;66003;52.286;104.306;2023-06-22T04:10:39;10.25;;;4.32;;
77076;SDS011;66003;52.286;104.306;2023-06-22T04:13:06;6.75;;;4.35;;
77076;SDS011;66003;52.286;104.306;2023-06-22T04:15:32;12.57;;;4.47;;
77076;SDS011;66003;52.286;104.306;2023-06-22T04:17:58;13.57;;;4.85;;
77076;SDS011;66003;52.286;104.306;2023-06-22T04:20:24;9.77;;;4.63;;
77076;SDS011;66003;52.286;104.306;2023-06-22T04:22:52;10.02;;;4.95;;
77076;SDS011;66003;52.286;104.306;2023-06-22T04:25:19;9.63;;;3.97;;
77076;SDS011;66003;52.286;104.306;2023-06-22T04:27:46;11.43;;;5.03;;
77076;SDS011;66003;52.286;104.306;2023-06-22T04:30:12;10.25;;;4.10;;
77076;SDS011;66003;52.286;104.306;2023-06-22T04:32:40;10.32;;;4.28;;
77076;SDS011;66003;52.286;104.306;2023-06-22T04:35:06;14.25;;;4.88;;
77076;SDS011;66003;52.286;104.306;2023-06-22T04:37:33;7.88;;;4.55;;
77076;SDS011;66003;52.286;104.306;2023-06-22T04:39:59;9.95;;;4.72;;
77076;SDS011;66003;52.286;104.306;2023-06-22T04:42:26;11.65;;;3.72;;
77076;SDS011;66003;52.286;104.306;2023-06-22T04:44:53;6.70;;;4.20;;
77076;SDS011;66003;52.286;104.306;2023-06-22T04:47:19;8.02;;;4.95;;
77076;SDS011;66003;52.286;104.306;2023-06-22T04:49:46;8.82;;;4.28;;
77076;SDS011;66003;52.286;104.306;2023-06-22T04:52:13;11.15;;;4.95;;
77076;SDS011;66003;52.286;104.306;2023-06-22T04:54:43;12.38;;;4.95;;
77076;SDS011;66003;52.286;104.306;2023-06-22T04:57:13;10.85;;;4.93;;
77076;SDS011;66003;52.286;104.306;2023-06-22T04:59:40;9.80;;;4.32;;
77076;SDS011;66003;52.286;104.306;2023-06-22T05:02:07;6.20;;;4.15;;
77076;SDS011;66003;52.286;104.306;2023-06-22T05:04:34;13.10;;;4.43;;
77076;SDS011;66003;52.286;104.306;2023-06-22T05:07:04;8.63;;;4.85;;
77076;SDS011;66003;52.286;104.306;2023-06-22T05:09:30;11.68;;;4.82;;
77076;SDS011;66003;52.286;104.306;2023-06-22T05:11:59;8.90;;;3.83;;
77076;SDS011;66003;52.286;104.306;2023-06-22T05:14:28;12.27;;;4.40;;
77076;SDS011;66003;52.286;104.306;2023-06-22T05:16:55;11.55;;;4.22;;
77076;SDS011;66003;52.286;104.306;2023-06-22T05:19:24;11.43;;;3.78;;
77076;SDS011;66003;52.286;104.306;2023-06-22T05:21:56;8.32;;;4.00;;
77076;SDS011;66003;52.286;104.306;2023-06-22T05:24:23;13.93;;;4.65;;
77076;SDS011;66003;52.286;104.306;2023-06-22T05:26:51;8.77;;;5.20;;
77076;SDS011;66003;52.286;104.306;2023-06-22T05:29:18;10.07;;;4.20;;
77076;SDS011;66003;52.286;104.306;2023-06-22T05:31:47;6.15;;;3.95;;
77076;SDS011;66003;52.286;104.306;2023-06-22T05:34:14;8.90;;;5.15;;
77076;SDS011;66003;52.286;104.306;2023-06-22T05:36:40;11.38;;;4.45;;
77076;SDS011;66003;52.286;104.306;2023-06-22T05:39:12;12.10;;;4.90;;
77076;SDS011;66003;52.286;104.306;2023-06-22T05:41:41;10.73;;;5.47;;
77076;SDS011;66003;52.286;104.306;2023-06-22T05:46:42;14.85;;;5.95;;
77076;SDS011;66003;52.286;104.306;2023-06-22T05:49:14;7.10;;;4.38;;
77076;SDS011;66003;52.286;104.306;2023-06-22T05:51:42;12.27;;;5.70;;
77076;SDS011;66003;52.286;104.306;2023-06-22T05:54:08;7.57;;;5.18;;
77076;SDS011;66003;52.286;104.306;2023-06-22T05:56:35;8.13;;;4.75;;
77076;SDS011;66003;52.286;104.306;2023-06-22T05:59:01;14.15;;;5.30;;
77076;SDS011;66003;52.286;104.306;2023-06-22T06:01:27;13.98;;;4.47;;
77076;SDS011;66003;52.286;104.306;2023-06-22T06:03:54;11.10;;;4.68;;
77076;SDS011;66003;52.286;104.306;2023-06-22T06:06:29;16.00;;;5.82;;
77076;SDS011;66003;52.286;104.306;2023-06-22T06:09:25;13.55;;;6.78;;
77076;SDS011;66003;52.286;104.306;2023-06-22T06:11:52;12.68;;;5.75;;
77076;SDS011;66003;52.286;104.306;2023-06-22T06:14:25;10.90;;;5.35;;
77076;SDS011;66003;52.286;104.306;2023-06-22T06:16:51;12.48;;;5.43;;
77076;SDS011;66003;52.286;104.306;2023-06-22T06:19:17;15.65;;;5.18;;
77076;SDS011;66003;52.286;104.306;2023-06-22T06:21:44;13.43;;;5.13;;
77076;SDS011;66003;52.286;104.306;2023-06-22T06:24:11;14.18;;;5.05;;
77076;SDS011;66003;52.286;104.306;2023-06-22T06:26:38;14.68;;;5.00;;
77076;SDS011;66003;52.286;104.306;2023-06-22T06:29:04;9.85;;;4.68;;
77076;SDS011;66003;52.286;104.306;2023-06-22T06:31:30;10.38;;;5.22;;
77076;SDS011;66003;52.286;104.306;2023-06-22T06:33:57;9.82;;;5.50;;
77076;SDS011;66003;52.286;104.306;2023-06-22T06:36:23;13.93;;;5.55;;
77076;SDS011;66003;52.286;104.306;2023-06-22T06:38:49;22.52;;;8.38;;
77076;SDS011;66003;52.286;104.306;2023-06-22T06:41:16;16.08;;;7.15;;
77076;SDS011;66003;52.286;104.306;2023-06-22T06:43:42;14.45;;;6.75;;
77076;SDS011;66003;52.286;104.306;2023-06-22T06:46:09;13.55;;;7.18;;
77076;SDS011;66003;52.286;104.306;2023-06-22T06:48:35;19.20;;;5.82;;
77076;SDS011;66003;52.286;104.306;2023-06-22T06:51:01;13.18;;;6.38;;
77076;SDS011;66003;52.286;104.306;2023-06-22T06:53:28;12.48;;;5.88;;
77076;SDS011;66003;52.286;104.306;2023-06-22T06:55:54;11.13;;;6.03;;
77076;SDS011;66003;52.286;104.306;2023-06-22T06:58:20;10.35;;;5.55;;
77076;SDS011;66003;52.286;104.306;2023-06-22T07:00:48;12.43;;;5.95;;
77076;SDS011;66003;52.286;104.306;2023-06-22T07:03:15;16.88;;;6.03;;
77076;SDS011;66003;52.286;104.306;2023-06-22T07:05:41;15.45;;;6.20;;
77076;SDS011;66003;52.286;104.306;2023-06-22T07:08:07;11.75;;;5.78;;
77076;SDS011;66003;52.286;104.306;2023-06-22T07:10:34;14.45;;;6.78;;
77076;SDS011;66003;52.286;104.306;2023-06-22T07:13:00;10.93;;;7.20;;
77076;SDS011;66003;52.286;104.306;2023-06-22T07:15:27;16.65;;;6.15;;
77076;SDS011;66003;52.286;104.306;2023-06-22T07:17:53;11.82;;;6.78;;
77076;SDS011;66003;52.286;104.306;2023-06-22T07:20:19;14.27;;;6.93;;
77076;SDS011;66003;52.286;104.306;2023-06-22T07:22:46;21.10;;;6.13;;
77076;SDS011;66003;52.286;104.306;2023-06-22T07:25:12;19.45;;;6.93;;
77076;SDS011;66003;52.286;104.306;2023-06-22T07:27:44;27.52;;;9.65;;
77076;SDS011;66003;52.286;104.306;2023-06-22T07:30:23;32.63;;;13.52;;
77076;SDS011;66003;52.286;104.306;2023-06-22T07:32:49;22.92;;;10.65;;
77076;SDS011;66003;52.286;104.306;2023-06-22T07:35:15;21.38;;;10.18;;
77076;SDS011;66003;52.286;104.306;2023-06-22T07:37:42;25.13;;;8.82;;
77076;SDS011;66003;52.286;104.306;2023-06-22T07:40:08;16.13;;;7.88;;
77076;SDS011;66003;52.286;104.306;2023-06-22T07:42:35;18.30;;;7.43;;
77076;SDS011;66003;52.286;104.306;2023-06-22T07:45:02;13.90;;;6.28;;
77076;SDS011;66003;52.286;104.306;2023-06-22T07:47:32;13.38;;;5.10;;
77076;SDS011;66003;52.286;104.306;2023-06-22T07:50:01;11.50;;;4.60;;
77076;SDS011;66003;52.286;104.306;2023-06-22T07:52:31;9.90;;;3.58;;
77076;SDS011;66003;52.286;104.306;2023-06-22T07:54:58;10.98;;;4.40;;
77076;SDS011;66003;52.286;104.306;2023-06-22T07:57:24;11.80;;;4.15;;
77076;SDS011;66003;52.286;104.306;2023-06-22T07:59:59;10.05;;;4.13;;
77076;SDS011;66003;52.286;104.306;2023-06-22T08:02:32;11.75;;;4.85;;
77076;SDS011;66003;52.286;104.306;2023-06-22T08:04:58;9.45;;;4.80;;
77076;SDS011;66003;52.286;104.306;2023-06-22T08:07:25;15.15;;;5.05;;
77076;SDS011;66003;52.286;104.306;2023-06-22T08:09:51;13.02;;;5.68;;
77076;SDS011;66003;52.286;104.306;2023-06-22T08:12:17;7.18;;;4.47;;
77076;SDS011;66003;52.286;104.306;2023-06-22T08:14:44;10.43;;;4.95;;
77076;SDS011;66003;52.286;104.306;2023-06-22T08:17:11;9.77;;;4.75;;
77076;SDS011;66003;52.286;104.306;2023-06-22T08:19:37;7.13;;;4.38;;
77076;SDS011;66003;52.286;104.306;2023-06-22T08:22:05;11.20;;;5.38;;
77076;SDS011;66003;52.286;104.306;2023-06-22T08:24:31;8.40;;;5.00;;
77076;SDS011;66003;52.286;104.306;2023-06-22T08:26:57;14.50;;;5.28;;
77076;SDS011;66003;52.286;104.306;2023-06-22T08:29:24;15.38;;;5.63;;
77076;SDS011;66003;52.286;104.306;2023-06-22T08:31:50;11.52;;;5.28;;
77076;SDS011;66003;52.286;104.306;2023-06-22T08:34:16;11.82;;;5.72;;
77076;SDS011;66003;52.286;104.306;2023-06-22T08:36:47;7.20;;;4.63;;
77076;SDS011;66003;52.286;104.306;2023-06-22T08:39:18;13.48;;;5.30;;
77076;SDS011;66003;52.286;104.306;2023-06-22T08:41:46;11.10;;;5.53;;
77076;SDS011;66003;52.286;104.306;2023-06-22T08:44:13;10.65;;;4.50;;
77076;SDS011;66003;52.286;104.306;2023-06-22T08:46:39;10.15;;;4.78;;
77076;SDS011;66003;52.286;104.306;2023-06-22T08:49:06;10.85;;;4.63;;
77076;SDS011;66003;52.286;104.306;2023-06-22T08:51:32;9.02;;;4.22;;
77076;SDS011;66003;52.286;104.306;2023-06-22T08:53:59;11.02;;;4.25;;
77076;SDS011;66003;52.286;104.306;2023-06-22T08:56:25;7.68;;;4.93;;
77076;SDS011;66003;52.286;104.306;2023-06-22T08:58:52;8.05;;;4.40;;
77076;SDS011;66003;52.286;104.306;2023-06-22T09:01:18;8.95;;;4.78;;
77076;SDS011;66003;52.286;104.306;2023-06-22T09:03:44;11.90;;;4.60;;
77076;SDS011;66003;52.286;104.306;2023-06-22T09:06:20;7.43;;;5.30;;
77076;SDS011;66003;52.286;104.306;2023-06-22T09:08:47;8.80;;;4.68;;
77076;SDS011;66003;52.286;104.306;2023-06-22T09:11:14;10.57;;;5.15;;
77076;SDS011;66003;52.286;104.306;2023-06-22T09:13:41;10.40;;;4.53;;
77076;SDS011;66003;52.286;104.306;2023-06-22T09:16:07;11.55;;;6.18;;
77076;SDS011;66003;52.286;104.306;2023-06-22T09:18:34;13.45;;;6.35;;
77076;SDS011;66003;52.286;104.306;2023-06-22T09:21:01;20.63;;;5.70;;
77076;SDS011;66003;52.286;104.306;2023-06-22T09:23:28;10.18;;;5.43;;
77076;SDS011;66003;52.286;104.306;2023-06-22T09:25:54;10.25;;;5.65;;
77076;SDS011;66003;52.286;104.306;2023-06-22T09:28:20;8.70;;;4.55;;
77076;SDS011;66003;52.286;104.306;2023-06-22T09:30:46;14.25;;;6.25;;
77076;SDS011;66003;52.286;104.306;2023-06-22T09:33:13;13.75;;;6.10;;
77076;SDS011;66003;52.286;104.306;2023-06-22T09:35:39;10.00;;;5.00;;
77076;SDS011;66003;52.286;104.306;2023-06-22T09:38:05;10.98;;;5.28;;
77076;SDS011;66003;52.286;104.306;2023-06-22T09:40:31;8.98;;;4.93;;
77076;SDS011;66003;52.286;104.306;2023-06-22T09:43:05;13.18;;;5.15;;
77076;SDS011;66003;52.286;104.306;2023-06-22T09:45:31;9.32;;;4.93;;
77076;SDS011;66003;52.286;104.306;2023-06-22T09:47:59;9.57;;;5.07;;
77076;SDS011;66003;52.286;104.306;2023-06-22T09:50:31;9.50;;;5.50;;
77076;SDS011;66003;52.286;104.306;2023-06-22T09:53:33;8.45;;;5.10;;
77076;SDS011;66003;52.286;104.306;2023-06-22T09:56:04;8.32;;;4.95;;
77076;SDS011;66003;52.286;104.306;2023-06-22T09:58:37;13.60;;;4.82;;
77076;SDS011;66003;52.286;104.306;2023-06-22T10:01:03;13.20;;;5.05;;
77076;SDS011;66003;52.286;104.306;2023-06-22T10:03:30;11.50;;;5.15;;
77076;SDS011;66003;52.286;104.306;2023-06-22T10:05:57;8.27;;;5.53;;
77076;SDS011;66003;52.286;104.306;2023-06-22T10:08:24;12.05;;;5.78;;
77076;SDS011;66003;52.286;104.306;2023-06-22T10:10:51;10.35;;;5.65;;
77076;SDS011;66003;52.286;104.306;2023-06-22T10:13:17;11.27;;;5.55;;
77076;SDS011;66003;52.286;104.306;2023-06-22T10:15:44;9.85;;;6.50;;
77076;SDS011;66003;52.286;104.306;2023-06-22T10:18:17;12.82;;;6.18;;
77076;SDS011;66003;52.286;104.306;2023-06-22T10:20:46;11.48;;;6.85;;
77076;SDS011;66003;52.286;104.306;2023-06-22T10:23:14;8.63;;;6.85;;
77076;SDS011;66003;52.286;104.306;2023-06-22T10:25:41;11.48;;;7.13;;
77076;SDS011;66003;52.286;104.306;2023-06-22T10:28:07;15.35;;;6.75;;
77076;SDS011;66003;52.286;104.306;2023-06-22T10:30:36;23.95;;;8.63;;
77076;SDS011;66003;52.286;104.306;2023-06-22T10:33:11;11.75;;;7.05;;
77076;SDS011;66003;52.286;104.306;2023-06-22T10:35:44;19.30;;;7.90;;
77076;SDS011;66003;52.286;104.306;2023-06-22T10:38:22;15.15;;;8.02;;
77076;SDS011;66003;52.286;104.306;2023-06-22T10:40:55;14.15;;;7.72;;
77076;SDS011;66003;52.286;104.306;2023-06-22T10:43:28;13.05;;;7.07;;
77076;SDS011;66003;52.286;104.306;2023-06-22T10:45:56;10.95;;;7.57;;
77076;SDS011;66003;52.286;104.306;2023-06-22T10:48:28;13.15;;;7.88;;
77076;SDS011;66003;52.286;104.306;2023-06-22T10:50:55;14.30;;;8.00;;
77076;SDS011;66003;52.286;104.306;2023-06-22T10:53:21;16.75;;;8.90;;
77076;SDS011;66003;52.286;104.306;2023-06-22T10:55:47;11.63;;;7.50;;
77076;SDS011;66003;52.286;104.306;2023-06-22T10:58:14;10.93;;;7.18;;
77076;SDS011;66003;52.286;104.306;2023-06-22T11:00:40;13.35;;;7.85;;
77076;SDS011;66003;52.286;104.306;2023-06-22T11:03:07;16.02;;;8.20;;
77076;SDS011;66003;52.286;104.306;2023-06-22T11:05:33;17.23;;;9.68;;
77076;SDS011;66003;52.286;104.306;2023-06-22T11:07:59;18.17;;;8.52;;
77076;SDS011;66003;52.286;104.306;2023-06-22T11:10:25;12.45;;;7.93;;
77076;SDS011;66003;52.286;104.306;2023-06-22T11:12:52;12.27;;;8.60;;
77076;SDS011;66003;52.286;104.306;2023-06-22T11:15:18;14.50;;;8.40;;
77076;SDS011;66003;52.286;104.306;2023-06-22T11:17:45;15.88;;;9.25;;
77076;SDS011;66003;52.286;104.306;2023-06-22T11:20:11;14.13;;;8.45;;
77076;SDS011;66003;52.286;104.306;2023-06-22T11:22:38;13.38;;;8.80;;
77076;SDS011;66003;52.286;104.306;2023-06-22T11:25:05;13.38;;;8.68;;
77076;SDS011;66003;52.286;104.306;2023-06-22T11:27:31;14.13;;;8.23;;
77076;SDS011;66003;52.286;104.306;2023-06-22T11:29:58;15.07;;;9.52;;
77076;SDS011;66003;52.286;104.306;2023-06-22T11:32:24;14.88;;;8.50;;
77076;SDS011;66003;52.286;104.306;2023-06-22T11:34:51;20.88;;;8.73;;
77076;SDS011;66003;52.286;104.306;2023-06-22T11:37:18;14.05;;;8.85;;
77076;SDS011;66003;52.286;104.306;2023-06-22T11:39:46;13.18;;;8.65;;
77076;SDS011;66003;52.286;104.306;2023-06-22T11:42:12;17.88;;;9.65;;
77076;SDS011;66003;52.286;104.306;2023-06-22T11:44:38;15.50;;;8.52;;
77076;SDS011;66003;52.286;104.306;2023-06-22T11:47:05;12.82;;;7.78;;
77076;SDS011;66003;52.286;104.306;2023-06-22T11:49:31;12.50;;;8.48;;
77076;SDS011;66003;52.286;104.306;2023-06-22T11:51:57;13.90;;;7.95;;
77076;SDS011;66003;52.286;104.306;2023-06-22T11:54:24;14.02;;;8.07;;
77076;SDS011;66003;52.286;104.306;2023-06-22T11:56:51;14.10;;;9.63;;
77076;SDS011;66003;52.286;104.306;2023-06-22T11:59:17;18.13;;;8.27;;
77076;SDS011;66003;52.286;104.306;2023-06-22T12:01:44;14.75;;;8.60;;
77076;SDS011;66003;52.286;104.306;2023-06-22T12:04:10;15.38;;;8.80;;
77076;SDS011;66003;52.286;104.306;2023-06-22T12:06:37;16.50;;;10.43;;
77076;SDS011;66003;52.286;104.306;2023-06-22T12:09:07;13.90;;;8.85;;
77076;SDS011;66003;52.286;104.306;2023-06-22T12:11:34;17.52;;;9.40;;
77076;SDS011;66003;52.286;104.306;2023-06-22T12:14:00;18.98;;;9.98;;
77076;SDS011;66003;52.286;104.306;2023-06-22T12:16:28;19.30;;;10.15;;
77076;SDS011;66003;52.286;104.306;2023-06-22T12:18:58;16.45;;;11.15;;
77076;SDS011;66003;52.286;104.306;2023-06-22T12:21:24;18.10;;;10.95;;
77076;SDS011;66003;52.286;104.306;2023-06-22T12:23:51;17.95;;;10.18;;
77076;SDS011;66003;52.286;104.306;2023-06-22T12:26:17;14.20;;;10.52;;
77076;SDS011;66003;52.286;104.306;2023-06-22T12:28:44;17.25;;;10.57;;
77076;SDS011;66003;52.286;104.306;2023-06-22T12:31:10;19.42;;;11.95;;
77076;SDS011;66003;52.286;104.306;2023-06-22T12:33:37;25.85;;;13.25;;
77076;SDS011;66003;52.286;104.306;2023-06-22T12:36:03;22.13;;;12.55;;
77076;SDS011;66003;52.286;104.306;2023-06-22T12:38:30;24.98;;;11.60;;
77076;SDS011;66003;52.286;104.306;2023-06-22T12:40:56;18.95;;;11.88;;
77076;SDS011;66003;52.286;104.306;2023-06-22T12:43:22;17.02;;;11.52;;
77076;SDS011;66003;52.286;104.306;2023-06-22T12:45:48;16.33;;;11.57;;
77076;SDS011;66003;52.286;104.306;2023-06-22T12:48:15;18.95;;;10.85;;
77076;SDS011;66003;52.286;104.306;2023-06-22T12:50:42;19.83;;;10.50;;
77076;SDS011;66003;52.286;104.306;2023-06-22T12:53:08;20.73;;;11.23;;
77076;SDS011;66003;52.286;104.306;2023-06-22T12:55:34;22.88;;;10.85;;
77076;SDS011;66003;52.286;104.306;2023-06-22T12:58:00;19.73;;;11.32;;
77076;SDS011;66003;52.286;104.306;2023-06-22T13:00:27;24.52;;;11.40;;
77076;SDS011;66003;52.286;104.306;2023-06-22T13:02:53;17.67;;;11.13;;
77076;SDS011;66003;52.286;104.306;2023-06-22T13:05:19;20.08;;;10.95;;
77076;SDS011;66003;52.286;104.306;2023-06-22T13:07:45;19.55;;;12.00;;
77076;SDS011;66003;52.286;104.306;2023-06-22T13:10:16;18.25;;;11.35;;
77076;SDS011;66003;52.286;104.306;2023-06-22T13:12:44;21.98;;;12.52;;
77076;SDS011;66003;52.286;104.306;2023-06-22T13:15:11;20.20;;;12.13;;
77076;SDS011;66003;52.286;104.306;2023-06-22T13:17:37;24.48;;;13.77;;
77076;SDS011;66003;52.286;104.306;2023-06-22T13:20:03;20.88;;;13.25;;
77076;SDS011;66003;52.286;104.306;2023-06-22T13:22:33;21.85;;;12.77;;
77076;SDS011;66003;52.286;104.306;2023-06-22T13:25:06;21.52;;;13.80;;
77076;SDS011;66003;52.286;104.306;2023-06-22T13:27:33;19.55;;;12.25;;
77076;SDS011;66003;52.286;104.306;2023-06-22T13:29:59;21.20;;;12.73;;
77076;SDS011;66003;52.286;104.306;2023-06-22T13:32:25;21.10;;;13.63;;
77076;SDS011;66003;52.286;104.306;2023-06-22T13:34:52;21.02;;;13.20;;
77076;SDS011;66003;52.286;104.306;2023-06-22T13:37:19;22.67;;;13.25;;
77076;SDS011;66003;52.286;104.306;2023-06-22T13:39:45;19.17;;;12.82;;
77076;SDS011;66003;52.286;104.306;2023-06-22T13:42:11;19.33;;;13.57;;
77076;SDS011;66003;52.286;104.306;2023-06-22T13:44:37;20.98;;;13.60;;
77076;SDS011;66003;52.286;104.306;2023-06-22T13:47:04;21.00;;;13.88;;
77076;SDS011;66003;52.286;104.306;2023-06-22T13:49:31;20.88;;;14.35;;
77076;SDS011;66003;52.286;104.306;2023-06-22T13:51:57;23.30;;;14.85;;
77076;SDS011;66003;52.286;104.306;2023-06-22T13:54:24;22.27;;;15.15;;
77076;SDS011;66003;52.286;104.306;2023-06-22T13:56:50;22.02;;;14.45;;
77076;SDS011;66003;52.286;104.306;2023-06-22T13:59:18;22.20;;;13.90;;
77076;SDS011;66003;52.286;104.306;2023-06-22T14:01:45;20.30;;;14.60;;
77076;SDS011;66003;52.286;104.306;2023-06-22T14:04:12;20.88;;;12.63;;
77076;SDS011;66003;52.286;104.306;2023-06-22T14:06:38;21.45;;;14.75;;
77076;SDS011;66003;52.286;104.306;2023-06-22T14:09:04;20.50;;;13.32;;
77076;SDS011;66003;52.286;104.306;2023-06-22T14:11:31;20.30;;;13.40;;
77076;SDS011;66003;52.286;104.306;2023-06-22T14:13:57;19.20;;;12.93;;
77076;SDS011;66003;52.286;104.306;2023-06-22T14:16:23;19.02;;;12.30;;
77076;SDS011;66003;52.286;104.306;2023-06-22T14:18:49;19.23;;;12.60;;
77076;SDS011;66003;52.286;104.306;2023-06-22T14:21:16;20.17;;;12.13;;
77076;SDS011;66003;52.286;104.306;2023-06-22T14:23:44;18.80;;;12.25;;